createdAt,value
2018-02-18T00:00:05.291Z,16.00
2018-02-18T00:00:37.109Z,15.90
2018-02-18T00:01:09.596Z,15.90
2018-02-18T00:01:41.326Z,15.90
2018-02-18T00:02:13.081Z,16.00
2018-02-18T00:02:44.829Z,16.00
2018-02-18T00:03:16.577Z,16.00
2018-02-18T00:03:48.331Z,16.00
2018-02-18T00:04:20.124Z,16.00
2018-02-18T00:04:52.653Z,16.00
2018-02-18T00:05:24.391Z,16.00
2018-02-18T00:05:56.150Z,15.90
2018-02-18T00:06:27.923Z,16.00
2018-02-18T00:07:00.577Z,16.00
2018-02-18T00:07:32.305Z,16.00
2018-02-18T00:08:04.111Z,16.00
2018-02-18T00:08:35.906Z,16.00
2018-02-18T00:09:08.425Z,16.00
2018-02-18T00:09:40.172Z,16.00
2018-02-18T00:10:11.898Z,16.00
2018-02-18T00:10:43.637Z,16.00
2018-02-18T00:11:15.410Z,16.00
2018-02-18T00:11:47.193Z,16.00
2018-02-18T00:12:18.941Z,16.00
2018-02-18T00:12:51.441Z,16.00
2018-02-18T00:13:23.193Z,16.00
2018-02-18T00:13:54.958Z,16.00
2018-02-18T00:14:26.766Z,16.00
2018-02-18T00:14:58.493Z,16.00
2018-02-18T00:15:30.360Z,16.00
2018-02-18T00:16:02.150Z,16.00
2018-02-18T00:16:33.890Z,16.00
2018-02-18T00:17:05.662Z,16.00
2018-02-18T00:17:37.389Z,16.00
2018-02-18T00:18:09.120Z,16.00
2018-02-18T00:18:40.864Z,16.00
2018-02-18T00:19:12.628Z,16.00
2018-02-18T00:19:44.384Z,16.00
2018-02-18T00:20:16.897Z,16.00
2018-02-18T00:20:48.704Z,16.00
2018-02-18T00:21:20.436Z,16.00
2018-02-18T00:21:52.187Z,16.00
2018-02-18T00:22:23.966Z,16.00
2018-02-18T00:22:56.835Z,16.00
2018-02-18T00:23:28.584Z,16.00
2018-02-18T00:24:00.332Z,16.00
2018-02-18T00:24:32.177Z,16.00
2018-02-18T00:25:03.885Z,16.00
2018-02-18T00:25:36.397Z,16.00
2018-02-18T00:26:08.151Z,16.00
2018-02-18T00:26:39.906Z,16.00
2018-02-18T00:27:11.681Z,16.10
2018-02-18T00:27:44.184Z,16.00
2018-02-18T00:28:15.940Z,16.00
2018-02-18T00:28:47.693Z,16.10
2018-02-18T00:29:19.522Z,16.10
2018-02-18T00:29:51.237Z,16.00
2018-02-18T00:30:23.747Z,16.00
2018-02-18T00:30:55.482Z,16.00
2018-02-18T00:31:27.317Z,16.00
2018-02-18T00:31:59.033Z,16.10
2018-02-18T00:32:30.850Z,16.00
2018-02-18T00:33:02.589Z,16.10
2018-02-18T00:33:34.330Z,16.10
2018-02-18T00:34:06.084Z,16.00
2018-02-18T00:34:37.834Z,16.10
2018-02-18T00:35:10.358Z,16.10
2018-02-18T00:35:42.100Z,16.00
2018-02-18T00:36:13.844Z,16.00
2018-02-18T00:36:45.671Z,16.10
2018-02-18T00:37:17.399Z,16.10
2018-02-18T00:37:49.912Z,16.10
2018-02-18T00:38:21.725Z,16.10
2018-02-18T00:38:54.244Z,16.10
2018-02-18T00:39:26.039Z,16.10
2018-02-18T00:39:57.760Z,16.10
2018-02-18T00:40:30.258Z,16.10
2018-02-18T00:41:02.012Z,16.10
2018-02-18T00:41:33.749Z,16.10
2018-02-18T00:42:05.544Z,16.10
2018-02-18T00:42:38.179Z,16.00
2018-02-18T00:43:09.964Z,16.00
2018-02-18T00:43:41.774Z,16.10
2018-02-18T00:44:13.496Z,16.10
2018-02-18T00:44:45.222Z,16.10
2018-02-18T00:45:16.973Z,16.10
2018-02-18T00:45:48.751Z,16.10
2018-02-18T00:46:20.486Z,16.10
2018-02-18T00:46:52.277Z,16.10
2018-02-18T00:47:24.038Z,16.10
2018-02-18T00:47:55.773Z,16.10
2018-02-18T00:48:28.295Z,16.10
2018-02-18T00:49:00.089Z,16.10
2018-02-18T00:49:32.611Z,16.10
2018-02-18T00:50:04.337Z,16.10
2018-02-18T00:50:36.092Z,16.10
2018-02-18T00:51:07.831Z,16.10
2018-02-18T00:51:39.563Z,16.10
2018-02-18T00:52:11.312Z,16.10
2018-02-18T00:52:43.087Z,16.10
2018-02-18T00:53:15.628Z,16.10
2018-02-18T00:53:47.377Z,16.10
2018-02-18T00:54:19.136Z,16.10
2018-02-18T00:54:50.889Z,16.10
2018-02-18T00:55:23.427Z,16.10
2018-02-18T00:55:55.154Z,16.10
2018-02-18T00:56:26.919Z,16.10
2018-02-18T00:56:58.655Z,16.10
2018-02-18T00:57:30.384Z,16.10
2018-02-18T00:58:02.119Z,16.10
2018-02-18T00:58:33.868Z,16.10
2018-02-18T00:59:05.599Z,16.10
2018-02-18T00:59:37.334Z,16.10
2018-02-18T01:00:09.126Z,16.10
2018-02-18T01:00:40.838Z,16.20
2018-02-18T01:01:12.579Z,16.20
2018-02-18T01:01:44.349Z,16.20
2018-02-18T01:02:16.101Z,16.10
2018-02-18T01:02:47.850Z,16.20
2018-02-18T01:03:19.623Z,16.20
2018-02-18T01:03:52.119Z,16.10
2018-02-18T01:04:23.866Z,16.10
2018-02-18T01:04:55.619Z,16.10
2018-02-18T01:05:27.369Z,16.10
2018-02-18T01:05:59.132Z,16.00
2018-02-18T01:06:30.879Z,15.80
2018-02-18T01:07:02.619Z,15.70
2018-02-18T01:07:34.352Z,15.70
2018-02-18T01:08:06.105Z,15.60
2018-02-18T01:08:37.836Z,15.60
2018-02-18T01:09:09.576Z,15.60
2018-02-18T01:09:41.342Z,15.60
2018-02-18T01:10:13.072Z,15.60
2018-02-18T01:10:44.899Z,15.70
2018-02-18T01:11:16.621Z,15.70
2018-02-18T01:11:48.367Z,15.70
2018-02-18T01:12:20.101Z,15.70
2018-02-18T01:12:52.585Z,15.80
2018-02-18T01:13:24.356Z,15.80
2018-02-18T01:13:56.061Z,15.80
2018-02-18T01:14:27.842Z,15.80
2018-02-18T01:14:59.573Z,15.80
2018-02-18T01:15:31.320Z,15.90
2018-02-18T01:16:03.070Z,15.90
2018-02-18T01:16:34.797Z,15.90
2018-02-18T01:17:06.553Z,15.90
2018-02-18T01:17:38.283Z,15.90
2018-02-18T01:18:10.035Z,15.90
2018-02-18T01:18:41.788Z,15.90
2018-02-18T01:19:13.495Z,15.90
2018-02-18T01:19:45.228Z,15.90
2018-02-18T01:20:17.737Z,15.90
2018-02-18T01:20:49.471Z,15.90
2018-02-18T01:21:21.208Z,15.90
2018-02-18T01:21:52.966Z,16.00
2018-02-18T01:22:24.737Z,16.00
2018-02-18T01:22:56.478Z,15.90
2018-02-18T01:23:28.227Z,16.00
2018-02-18T01:23:59.968Z,16.00
2018-02-18T01:24:31.701Z,16.00
2018-02-18T01:25:03.458Z,16.00
2018-02-18T01:25:35.225Z,16.00
2018-02-18T01:26:07.737Z,16.00
2018-02-18T01:26:39.471Z,16.00
2018-02-18T01:27:11.199Z,16.00
2018-02-18T01:27:42.936Z,16.00
2018-02-18T01:28:15.431Z,16.00
2018-02-18T01:28:47.156Z,16.00
2018-02-18T01:29:18.939Z,16.10
2018-02-18T01:29:50.642Z,16.00
2018-02-18T01:30:22.392Z,16.00
2018-02-18T01:30:54.131Z,16.00
2018-02-18T01:31:25.864Z,16.00
2018-02-18T01:31:58.382Z,16.00
2018-02-18T01:32:30.124Z,16.00
2018-02-18T01:33:01.856Z,16.00
2018-02-18T01:33:33.597Z,16.10
2018-02-18T01:34:05.413Z,16.10
2018-02-18T01:34:37.151Z,16.10
2018-02-18T01:35:09.660Z,16.10
2018-02-18T01:35:41.396Z,16.00
2018-02-18T01:36:13.126Z,16.00
2018-02-18T01:36:44.867Z,16.10
2018-02-18T01:37:16.583Z,16.10
2018-02-18T01:37:49.109Z,16.10
2018-02-18T01:38:20.828Z,16.00
2018-02-18T01:38:52.568Z,16.10
2018-02-18T01:39:24.310Z,16.10
2018-02-18T01:39:56.080Z,16.10
2018-02-18T01:40:28.763Z,16.10
2018-02-18T01:41:01.599Z,16.10
2018-02-18T01:41:33.308Z,16.10
2018-02-18T01:42:05.805Z,16.10
2018-02-18T01:42:37.534Z,16.10
2018-02-18T01:43:09.273Z,16.00
2018-02-18T01:43:41.029Z,15.90
2018-02-18T01:44:12.760Z,15.80
2018-02-18T01:44:44.490Z,15.70
2018-02-18T01:45:16.232Z,15.70
2018-02-18T01:45:48.725Z,15.70
2018-02-18T01:46:20.449Z,15.70
2018-02-18T01:46:52.188Z,15.70
2018-02-18T01:47:24.713Z,15.80
2018-02-18T01:47:56.418Z,15.70
2018-02-18T01:48:28.152Z,15.80
2018-02-18T01:48:59.917Z,15.80
2018-02-18T01:49:31.638Z,15.80
2018-02-18T01:50:03.389Z,15.80
2018-02-18T01:50:35.135Z,15.80
2018-02-18T01:51:06.882Z,15.90
2018-02-18T01:51:38.605Z,15.90
2018-02-18T01:52:10.352Z,15.90
2018-02-18T01:52:42.091Z,15.90
2018-02-18T01:53:14.597Z,15.90
2018-02-18T01:53:46.332Z,15.90
2018-02-18T01:54:18.075Z,15.90
2018-02-18T01:54:49.790Z,15.90
2018-02-18T01:55:21.529Z,16.00
2018-02-18T01:55:54.093Z,16.00
2018-02-18T01:56:26.574Z,15.90
2018-02-18T01:56:58.318Z,15.90
2018-02-18T01:57:30.072Z,16.00
2018-02-18T01:58:01.808Z,16.00
2018-02-18T01:58:33.565Z,16.00
2018-02-18T01:59:05.279Z,16.00
2018-02-18T01:59:37.020Z,16.00
2018-02-18T02:00:09.528Z,16.00
2018-02-18T02:00:41.286Z,16.00
2018-02-18T02:01:12.981Z,16.00
2018-02-18T02:01:44.732Z,16.00
2018-02-18T02:02:16.668Z,16.00
2018-02-18T02:02:48.419Z,16.00
2018-02-18T02:03:20.182Z,16.00
2018-02-18T02:03:51.900Z,16.00
2018-02-18T02:04:23.661Z,16.00
2018-02-18T02:04:56.144Z,16.00
2018-02-18T02:05:27.887Z,16.00
2018-02-18T02:05:59.622Z,16.00
2018-02-18T02:06:31.417Z,16.10
2018-02-18T02:07:03.182Z,16.00
2018-02-18T02:07:35.744Z,16.00
2018-02-18T02:08:07.467Z,16.00
2018-02-18T02:08:39.195Z,16.10
2018-02-18T02:09:10.947Z,16.10
2018-02-18T02:09:42.715Z,16.00
2018-02-18T02:10:15.207Z,16.00
2018-02-18T02:10:46.958Z,16.00
2018-02-18T02:11:18.729Z,16.00
2018-02-18T02:11:50.424Z,16.10
2018-02-18T02:12:22.142Z,16.00
2018-02-18T02:12:54.650Z,16.10
2018-02-18T02:13:26.416Z,16.00
2018-02-18T02:13:58.149Z,16.10
2018-02-18T02:14:29.904Z,16.10
2018-02-18T02:15:01.648Z,16.00
2018-02-18T02:15:33.421Z,16.10
2018-02-18T02:16:05.144Z,16.10
2018-02-18T02:16:36.877Z,16.00
2018-02-18T02:17:08.615Z,16.10
2018-02-18T02:17:40.338Z,16.10
2018-02-18T02:18:12.104Z,16.00
2018-02-18T02:18:43.824Z,16.10
2018-02-18T02:19:16.312Z,16.10
2018-02-18T02:19:48.051Z,16.10
2018-02-18T02:20:19.772Z,16.10
2018-02-18T02:20:51.509Z,16.10
2018-02-18T02:21:24.011Z,16.10
2018-02-18T02:21:55.768Z,16.10
2018-02-18T02:22:27.521Z,16.10
2018-02-18T02:22:59.235Z,16.10
2018-02-18T02:23:30.963Z,16.10
2018-02-18T02:24:02.929Z,16.10
2018-02-18T02:24:34.648Z,16.10
2018-02-18T02:25:06.399Z,16.10
2018-02-18T02:25:38.126Z,16.10
2018-02-18T02:26:10.648Z,16.10
2018-02-18T02:26:42.367Z,16.10
2018-02-18T02:27:14.110Z,16.10
2018-02-18T02:27:45.850Z,16.10
2018-02-18T02:28:17.579Z,16.10
2018-02-18T02:28:49.330Z,16.10
2018-02-18T02:29:21.052Z,16.10
2018-02-18T02:29:52.770Z,16.10
2018-02-18T02:30:24.521Z,16.10
2018-02-18T02:30:56.255Z,16.10
2018-02-18T02:31:27.985Z,16.10
2018-02-18T02:31:59.736Z,16.10
2018-02-18T02:32:31.461Z,16.10
2018-02-18T02:33:03.180Z,16.10
2018-02-18T02:33:34.913Z,16.10
2018-02-18T02:34:06.638Z,16.10
2018-02-18T02:34:39.151Z,16.10
2018-02-18T02:35:10.883Z,16.10
2018-02-18T02:35:42.606Z,16.10
2018-02-18T02:36:14.348Z,16.10
2018-02-18T02:36:46.080Z,16.10
2018-02-18T02:37:18.572Z,16.10
2018-02-18T02:37:50.335Z,16.10
2018-02-18T02:38:22.041Z,16.10
2018-02-18T02:38:53.797Z,16.10
2018-02-18T02:39:25.556Z,16.10
2018-02-18T02:39:57.260Z,16.10
2018-02-18T02:40:29.757Z,16.10
2018-02-18T02:41:01.468Z,16.10
2018-02-18T02:41:33.972Z,16.10
2018-02-18T02:42:05.709Z,16.10
2018-02-18T02:42:37.457Z,16.10
2018-02-18T02:43:09.173Z,16.20
2018-02-18T02:43:41.668Z,16.10
2018-02-18T02:44:13.387Z,16.10
2018-02-18T02:44:45.259Z,16.10
2018-02-18T02:45:16.970Z,16.20
2018-02-18T02:45:48.744Z,16.20
2018-02-18T02:46:20.488Z,16.10
2018-02-18T02:46:52.228Z,16.20
2018-02-18T02:47:23.937Z,16.10
2018-02-18T02:47:56.452Z,16.10
2018-02-18T02:48:28.185Z,16.10
2018-02-18T02:48:59.980Z,16.10
2018-02-18T02:49:31.721Z,16.10
2018-02-18T02:50:04.244Z,16.10
2018-02-18T02:50:35.972Z,16.10
2018-02-18T02:51:07.714Z,16.10
2018-02-18T02:51:39.442Z,16.20
2018-02-18T02:52:11.240Z,16.10
2018-02-18T02:52:43.675Z,16.10
2018-02-18T02:53:15.431Z,16.10
2018-02-18T02:53:47.159Z,16.20
2018-02-18T02:54:18.885Z,16.20
2018-02-18T02:54:50.651Z,16.20
2018-02-18T02:55:22.377Z,16.20
2018-02-18T02:55:54.109Z,16.10
2018-02-18T02:56:26.614Z,16.20
2018-02-18T02:56:58.341Z,16.20
2018-02-18T02:57:30.094Z,16.20
2018-02-18T02:58:01.810Z,16.20
2018-02-18T02:58:33.548Z,16.20
2018-02-18T02:59:06.138Z,16.20
2018-02-18T02:59:38.623Z,16.20
2018-02-18T03:00:10.361Z,16.20
2018-02-18T03:00:42.093Z,16.20
2018-02-18T03:01:13.821Z,16.20
2018-02-18T03:01:45.549Z,16.20
2018-02-18T03:02:18.101Z,16.20
2018-02-18T03:02:50.611Z,16.20
2018-02-18T03:03:22.349Z,16.20
2018-02-18T03:03:54.088Z,16.20
2018-02-18T03:04:25.811Z,16.20
2018-02-18T03:04:58.306Z,16.20
2018-02-18T03:05:30.058Z,16.20
2018-02-18T03:06:01.805Z,16.20
2018-02-18T03:06:33.544Z,16.20
2018-02-18T03:07:05.282Z,16.20
2018-02-18T03:07:37.035Z,16.20
2018-02-18T03:08:08.784Z,16.20
2018-02-18T03:08:40.545Z,16.20
2018-02-18T03:09:12.274Z,16.20
2018-02-18T03:09:44.029Z,16.20
2018-02-18T03:10:15.783Z,16.20
2018-02-18T03:10:47.520Z,16.20
2018-02-18T03:11:19.295Z,16.20
2018-02-18T03:11:51.869Z,16.20
2018-02-18T03:12:24.360Z,16.20
2018-02-18T03:12:56.117Z,16.20
2018-02-18T03:13:27.838Z,16.20
2018-02-18T03:13:59.565Z,16.20
2018-02-18T03:14:31.413Z,16.20
2018-02-18T03:15:03.982Z,16.20
2018-02-18T03:15:36.471Z,16.20
2018-02-18T03:16:08.193Z,16.20
2018-02-18T03:16:39.940Z,16.20
2018-02-18T03:17:12.425Z,16.20
2018-02-18T03:17:44.144Z,16.20
2018-02-18T03:18:15.887Z,16.20
2018-02-18T03:18:47.616Z,16.20
2018-02-18T03:19:19.362Z,16.20
2018-02-18T03:19:51.077Z,16.20
2018-02-18T03:20:22.802Z,16.20
2018-02-18T03:20:54.538Z,16.20
2018-02-18T03:21:26.319Z,16.20
2018-02-18T03:21:58.887Z,16.20
2018-02-18T03:22:31.385Z,16.20
2018-02-18T03:23:03.152Z,16.20
2018-02-18T03:23:34.879Z,16.20
2018-02-18T03:24:06.649Z,16.20
2018-02-18T03:24:38.382Z,16.30
2018-02-18T03:25:10.121Z,16.30
2018-02-18T03:25:41.851Z,16.20
2018-02-18T03:26:13.592Z,16.20
2018-02-18T03:26:45.322Z,16.30
2018-02-18T03:27:17.052Z,16.30
2018-02-18T03:27:49.548Z,16.30
2018-02-18T03:28:21.287Z,16.20
2018-02-18T03:28:53.029Z,16.20
2018-02-18T03:29:24.756Z,16.20
2018-02-18T03:29:56.488Z,16.30
2018-02-18T03:30:28.997Z,16.20
2018-02-18T03:31:00.717Z,16.30
2018-02-18T03:31:32.446Z,16.30
2018-02-18T03:32:04.954Z,16.20
2018-02-18T03:32:36.686Z,16.20
2018-02-18T03:33:08.418Z,16.20
2018-02-18T03:33:40.145Z,16.30
2018-02-18T03:34:12.648Z,16.20
2018-02-18T03:34:44.373Z,16.20
2018-02-18T03:35:16.121Z,16.30
2018-02-18T03:35:47.852Z,16.20
2018-02-18T03:36:19.577Z,16.30
2018-02-18T03:36:52.091Z,16.30
2018-02-18T03:37:23.837Z,16.20
2018-02-18T03:37:55.581Z,16.30
2018-02-18T03:38:27.324Z,16.30
2018-02-18T03:38:59.155Z,16.30
2018-02-18T03:39:31.665Z,16.30
2018-02-18T03:40:03.402Z,16.30
2018-02-18T03:40:35.145Z,16.30
2018-02-18T03:41:06.960Z,16.30
2018-02-18T03:41:38.700Z,16.30
2018-02-18T03:42:10.443Z,16.30
2018-02-18T03:42:42.180Z,16.30
2018-02-18T03:43:13.929Z,16.30
2018-02-18T03:43:45.656Z,16.30
2018-02-18T03:44:17.398Z,16.30
2018-02-18T03:44:49.147Z,16.30
2018-02-18T03:45:20.866Z,16.30
2018-02-18T03:45:53.377Z,16.30
2018-02-18T03:46:25.107Z,16.30
2018-02-18T03:46:56.868Z,16.30
2018-02-18T03:47:28.593Z,16.30
2018-02-18T03:48:00.329Z,16.30
2018-02-18T03:48:32.069Z,16.30
2018-02-18T03:49:04.561Z,16.30
2018-02-18T03:49:36.321Z,16.30
2018-02-18T03:50:08.064Z,16.30
2018-02-18T03:50:39.794Z,16.30
2018-02-18T03:51:11.530Z,16.30
2018-02-18T03:51:43.277Z,16.30
2018-02-18T03:52:15.012Z,16.30
2018-02-18T03:52:46.762Z,16.30
2018-02-18T03:53:18.539Z,16.30
2018-02-18T03:53:50.260Z,16.30
2018-02-18T03:54:22.000Z,16.30
2018-02-18T03:54:53.741Z,16.30
2018-02-18T03:55:25.510Z,16.30
2018-02-18T03:55:57.253Z,16.30
2018-02-18T03:56:28.997Z,16.30
2018-02-18T03:57:00.720Z,16.30
2018-02-18T03:57:32.440Z,16.30
2018-02-18T03:58:04.220Z,16.30
2018-02-18T03:58:35.940Z,16.30
2018-02-18T03:59:07.683Z,16.30
2018-02-18T03:59:39.426Z,16.30
2018-02-18T04:00:11.153Z,16.30
2018-02-18T04:00:42.887Z,16.30
2018-02-18T04:01:15.376Z,16.30
2018-02-18T04:01:47.116Z,16.30
2018-02-18T04:02:18.865Z,16.30
2018-02-18T04:02:50.609Z,16.40
2018-02-18T04:03:22.327Z,16.30
2018-02-18T04:03:54.822Z,16.30
2018-02-18T04:04:26.553Z,16.30
2018-02-18T04:04:58.301Z,16.30
2018-02-18T04:05:30.072Z,16.30
2018-02-18T04:06:01.777Z,16.40
2018-02-18T04:06:33.512Z,16.30
2018-02-18T04:07:06.020Z,16.40
2018-02-18T04:07:37.764Z,16.30
2018-02-18T04:08:09.488Z,16.40
2018-02-18T04:08:41.218Z,16.30
2018-02-18T04:09:12.983Z,16.30
2018-02-18T04:09:45.468Z,16.40
2018-02-18T04:10:17.229Z,16.30
2018-02-18T04:10:48.960Z,16.30
2018-02-18T04:11:20.699Z,16.40
2018-02-18T04:11:52.427Z,16.40
2018-02-18T04:12:24.149Z,16.40
2018-02-18T04:12:55.904Z,16.30
2018-02-18T04:13:27.675Z,16.30
2018-02-18T04:13:59.416Z,16.40
2018-02-18T04:14:31.140Z,16.40
2018-02-18T04:15:02.997Z,16.40
2018-02-18T04:15:34.718Z,16.40
2018-02-18T04:16:06.506Z,16.40
2018-02-18T04:16:38.220Z,16.40
2018-02-18T04:17:09.951Z,16.40
2018-02-18T04:17:41.697Z,16.40
2018-02-18T04:18:13.452Z,16.40
2018-02-18T04:18:45.299Z,16.40
2018-02-18T04:19:17.109Z,16.40
2018-02-18T04:19:48.982Z,16.40
2018-02-18T04:20:20.731Z,16.40
2018-02-18T04:20:52.500Z,16.40
2018-02-18T04:21:24.243Z,16.40
2018-02-18T04:21:55.987Z,16.40
2018-02-18T04:22:27.740Z,16.40
2018-02-18T04:22:59.498Z,16.40
2018-02-18T04:23:31.273Z,16.40
2018-02-18T04:24:03.013Z,16.40
2018-02-18T04:24:34.729Z,16.40
2018-02-18T04:25:06.478Z,16.40
2018-02-18T04:25:38.213Z,16.40
2018-02-18T04:26:09.983Z,16.40
2018-02-18T04:26:41.946Z,16.40
2018-02-18T04:27:13.680Z,16.40
2018-02-18T04:27:45.394Z,16.40
2018-02-18T04:28:17.184Z,16.40
2018-02-18T04:28:48.924Z,16.40
2018-02-18T04:29:21.425Z,16.40
2018-02-18T04:29:53.168Z,16.40
2018-02-18T04:30:24.943Z,16.40
2018-02-18T04:30:56.692Z,16.40
2018-02-18T04:31:28.430Z,16.40
2018-02-18T04:32:00.177Z,16.40
2018-02-18T04:32:31.945Z,16.40
2018-02-18T04:33:03.831Z,16.40
2018-02-18T04:33:35.557Z,16.40
2018-02-18T04:34:07.322Z,16.40
2018-02-18T04:34:39.079Z,16.40
2018-02-18T04:35:10.827Z,16.40
2018-02-18T04:35:42.669Z,16.40
2018-02-18T04:36:14.395Z,16.40
2018-02-18T04:36:46.129Z,16.40
2018-02-18T04:37:17.892Z,16.40
2018-02-18T04:37:49.690Z,16.40
2018-02-18T04:38:21.444Z,16.40
2018-02-18T04:38:53.172Z,16.40
2018-02-18T04:39:24.900Z,16.40
2018-02-18T04:39:56.655Z,16.40
2018-02-18T04:40:28.381Z,16.40
2018-02-18T04:41:00.124Z,16.40
2018-02-18T04:41:31.910Z,16.40
2018-02-18T04:42:03.651Z,16.40
2018-02-18T04:42:35.366Z,16.40
2018-02-18T04:43:07.190Z,16.40
2018-02-18T04:43:38.926Z,16.40
2018-02-18T04:44:10.671Z,16.40
2018-02-18T04:44:42.421Z,16.40
2018-02-18T04:45:14.174Z,16.40
2018-02-18T04:45:45.923Z,16.40
2018-02-18T04:46:17.669Z,16.50
2018-02-18T04:46:49.432Z,16.40
2018-02-18T04:47:21.166Z,16.40
2018-02-18T04:47:52.964Z,16.40
2018-02-18T04:48:24.686Z,16.40
2018-02-18T04:48:57.189Z,16.50
2018-02-18T04:49:28.930Z,16.40
2018-02-18T04:50:00.666Z,16.40
2018-02-18T04:50:32.405Z,16.40
2018-02-18T04:51:04.258Z,16.40
2018-02-18T04:51:35.993Z,16.40
2018-02-18T04:52:07.736Z,16.40
2018-02-18T04:52:40.253Z,16.50
2018-02-18T04:53:12.007Z,16.40
2018-02-18T04:53:43.779Z,16.40
2018-02-18T04:54:15.516Z,16.40
2018-02-18T04:54:48.066Z,16.40
2018-02-18T04:55:19.805Z,16.40
2018-02-18T04:55:51.520Z,16.40
2018-02-18T04:56:23.281Z,16.40
2018-02-18T04:56:55.023Z,16.50
2018-02-18T04:57:26.757Z,16.40
2018-02-18T04:57:58.486Z,16.40
2018-02-18T04:58:30.244Z,16.40
2018-02-18T04:59:02.046Z,16.50
2018-02-18T04:59:34.544Z,16.50
2018-02-18T05:00:06.281Z,16.40
2018-02-18T05:00:38.022Z,16.40
2018-02-18T05:01:09.775Z,16.50
2018-02-18T05:01:41.513Z,16.40
2018-02-18T05:02:13.254Z,16.40
2018-02-18T05:02:44.975Z,16.40
2018-02-18T05:03:17.491Z,16.40
2018-02-18T05:03:49.224Z,16.40
2018-02-18T05:04:21.041Z,16.40
2018-02-18T05:04:53.525Z,16.40
2018-02-18T05:05:25.269Z,16.40
2018-02-18T05:05:57.008Z,16.40
2018-02-18T05:06:28.746Z,16.40
2018-02-18T05:07:00.495Z,16.50
2018-02-18T05:07:33.176Z,16.50
2018-02-18T05:08:04.944Z,16.40
2018-02-18T05:08:36.657Z,16.50
2018-02-18T05:09:08.440Z,16.50
2018-02-18T05:09:40.164Z,16.40
2018-02-18T05:10:11.936Z,16.40
2018-02-18T05:10:43.732Z,16.40
2018-02-18T05:11:15.453Z,16.40
2018-02-18T05:11:47.256Z,16.40
2018-02-18T05:12:18.988Z,16.40
2018-02-18T05:12:50.727Z,16.40
2018-02-18T05:13:22.492Z,16.50
2018-02-18T05:13:54.227Z,16.40
2018-02-18T05:14:25.951Z,16.40
2018-02-18T05:14:57.682Z,16.50
2018-02-18T05:15:29.488Z,16.50
2018-02-18T05:16:01.191Z,16.50
2018-02-18T05:16:32.976Z,16.50
2018-02-18T05:17:05.492Z,16.40
2018-02-18T05:17:37.230Z,16.40
2018-02-18T05:18:09.005Z,16.50
2018-02-18T05:18:40.747Z,16.40
2018-02-18T05:19:12.498Z,16.40
2018-02-18T05:19:44.309Z,16.40
2018-02-18T05:20:16.019Z,16.40
2018-02-18T05:20:48.523Z,16.40
2018-02-18T05:21:21.032Z,16.40
2018-02-18T05:21:52.782Z,16.40
2018-02-18T05:22:24.543Z,16.40
2018-02-18T05:22:56.265Z,16.50
2018-02-18T05:23:28.006Z,16.40
2018-02-18T05:23:59.754Z,16.50
2018-02-18T05:24:31.487Z,16.50
2018-02-18T05:25:03.217Z,16.40
2018-02-18T05:25:34.959Z,16.40
2018-02-18T05:26:06.690Z,16.40
2018-02-18T05:26:39.201Z,16.40
2018-02-18T05:27:10.936Z,16.40
2018-02-18T05:27:42.696Z,16.40
2018-02-18T05:28:14.441Z,16.50
2018-02-18T05:28:46.168Z,16.50
2018-02-18T05:29:17.889Z,16.40
2018-02-18T05:29:49.727Z,16.40
2018-02-18T05:30:22.228Z,16.40
2018-02-18T05:30:53.977Z,16.40
2018-02-18T05:31:25.726Z,16.50
2018-02-18T05:31:57.500Z,16.40
2018-02-18T05:32:29.240Z,16.40
2018-02-18T05:33:00.972Z,16.50
2018-02-18T05:33:32.745Z,16.50
2018-02-18T05:34:05.261Z,16.50
2018-02-18T05:34:37.012Z,16.50
2018-02-18T05:35:08.765Z,16.50
2018-02-18T05:35:40.509Z,16.50
2018-02-18T05:36:12.254Z,16.50
2018-02-18T05:36:44.015Z,16.50
2018-02-18T05:37:15.747Z,16.50
2018-02-18T05:37:47.527Z,16.50
2018-02-18T05:38:20.047Z,16.50
2018-02-18T05:38:51.788Z,16.50
2018-02-18T05:39:23.565Z,16.50
2018-02-18T05:39:56.080Z,16.50
2018-02-18T05:40:27.802Z,16.50
2018-02-18T05:40:59.542Z,16.50
2018-02-18T05:41:31.378Z,16.50
2018-02-18T05:42:03.893Z,16.50
2018-02-18T05:42:35.658Z,16.50
2018-02-18T05:43:07.463Z,16.50
2018-02-18T05:43:39.207Z,16.50
2018-02-18T05:44:10.948Z,16.50
2018-02-18T05:44:42.731Z,16.50
2018-02-18T05:45:14.467Z,16.50
2018-02-18T05:45:46.228Z,16.50
2018-02-18T05:46:17.987Z,16.50
2018-02-18T05:46:50.500Z,16.50
2018-02-18T05:47:22.234Z,16.50
2018-02-18T05:47:53.982Z,16.50
2018-02-18T05:48:25.734Z,16.50
2018-02-18T05:48:57.499Z,16.50
2018-02-18T05:49:29.249Z,16.50
2018-02-18T05:50:00.988Z,16.50
2018-02-18T05:50:32.734Z,16.50
2018-02-18T05:51:04.479Z,16.50
2018-02-18T05:51:36.219Z,16.50
2018-02-18T05:52:07.969Z,16.50
2018-02-18T05:52:39.709Z,16.50
2018-02-18T05:53:11.464Z,16.50
2018-02-18T05:53:43.211Z,16.50
2018-02-18T05:54:14.956Z,16.50
2018-02-18T05:54:46.721Z,16.50
2018-02-18T05:55:19.242Z,16.50
2018-02-18T05:55:50.962Z,16.50
2018-02-18T05:56:22.717Z,16.50
2018-02-18T05:56:54.492Z,16.50
2018-02-18T05:57:26.242Z,16.50
2018-02-18T05:57:57.966Z,16.50
2018-02-18T05:58:29.754Z,16.50
2018-02-18T05:59:02.246Z,16.50
2018-02-18T05:59:33.978Z,16.50
2018-02-18T06:00:05.708Z,16.50
2018-02-18T06:00:37.586Z,16.50
2018-02-18T06:01:09.355Z,16.50
2018-02-18T06:01:41.109Z,16.50
2018-02-18T06:02:12.850Z,16.50
2018-02-18T06:02:44.604Z,16.50
2018-02-18T06:03:16.345Z,16.50
2018-02-18T06:03:48.079Z,16.50
2018-02-18T06:04:19.841Z,16.60
2018-02-18T06:04:51.569Z,16.60
2018-02-18T06:05:23.314Z,16.60
2018-02-18T06:05:55.176Z,16.60
2018-02-18T06:06:26.893Z,16.60
2018-02-18T06:06:58.614Z,16.60
2018-02-18T06:07:30.358Z,16.60
2018-02-18T06:08:02.216Z,16.60
2018-02-18T06:08:34.051Z,16.60
2018-02-18T06:09:05.806Z,16.60
2018-02-18T06:09:37.548Z,16.50
2018-02-18T06:10:09.289Z,16.60
2018-02-18T06:10:41.056Z,16.60
2018-02-18T06:11:12.768Z,16.60
2018-02-18T06:11:44.582Z,16.60
2018-02-18T06:12:16.323Z,16.60
2018-02-18T06:12:48.048Z,16.60
2018-02-18T06:13:19.814Z,16.60
2018-02-18T06:13:51.554Z,16.60
2018-02-18T06:14:23.291Z,16.60
2018-02-18T06:14:55.033Z,16.60
2018-02-18T06:15:26.810Z,16.60
2018-02-18T06:15:58.511Z,16.60
2018-02-18T06:16:30.249Z,16.60
2018-02-18T06:17:01.986Z,16.60
2018-02-18T06:17:33.749Z,16.60
2018-02-18T06:18:05.499Z,16.60
2018-02-18T06:18:37.229Z,16.60
2018-02-18T06:19:08.999Z,16.60
2018-02-18T06:19:40.719Z,16.60
2018-02-18T06:20:12.458Z,16.60
2018-02-18T06:20:44.208Z,16.60
2018-02-18T06:21:15.959Z,16.60
2018-02-18T06:21:47.703Z,16.60
2018-02-18T06:22:20.232Z,16.60
2018-02-18T06:22:51.964Z,16.60
2018-02-18T06:23:23.749Z,16.60
2018-02-18T06:23:55.476Z,16.60
2018-02-18T06:24:27.242Z,16.60
2018-02-18T06:24:58.984Z,16.60
2018-02-18T06:25:30.736Z,16.60
2018-02-18T06:26:02.469Z,16.60
2018-02-18T06:26:34.243Z,16.60
2018-02-18T06:27:06.756Z,16.60
2018-02-18T06:27:38.483Z,16.60
2018-02-18T06:28:10.239Z,16.60
2018-02-18T06:28:41.969Z,16.60
2018-02-18T06:29:13.835Z,16.60
2018-02-18T06:29:45.568Z,16.60
2018-02-18T06:30:17.309Z,16.60
2018-02-18T06:30:49.054Z,16.60
2018-02-18T06:31:20.783Z,16.60
2018-02-18T06:31:52.521Z,16.60
2018-02-18T06:32:24.279Z,16.60
2018-02-18T06:32:56.019Z,16.60
2018-02-18T06:33:27.769Z,16.60
2018-02-18T06:33:59.548Z,16.60
2018-02-18T06:34:31.293Z,16.60
2018-02-18T06:35:03.047Z,16.60
2018-02-18T06:35:34.797Z,16.60
2018-02-18T06:36:06.535Z,16.60
2018-02-18T06:36:38.298Z,16.60
2018-02-18T06:37:10.077Z,16.60
2018-02-18T06:37:42.589Z,16.60
2018-02-18T06:38:14.369Z,16.60
2018-02-18T06:38:46.079Z,16.70
2018-02-18T06:39:17.847Z,16.60
2018-02-18T06:39:50.393Z,16.60
2018-02-18T06:40:22.135Z,16.60
2018-02-18T06:40:53.878Z,16.70
2018-02-18T06:41:25.643Z,16.70
2018-02-18T06:41:57.393Z,16.70
2018-02-18T06:42:29.898Z,16.60
2018-02-18T06:43:01.673Z,16.60
2018-02-18T06:43:33.400Z,16.70
2018-02-18T06:44:05.177Z,16.70
2018-02-18T06:44:36.927Z,16.60
2018-02-18T06:45:08.699Z,16.60
2018-02-18T06:45:40.447Z,16.70
2018-02-18T06:46:12.238Z,16.60
2018-02-18T06:46:43.984Z,16.70
2018-02-18T06:47:15.723Z,16.70
2018-02-18T06:47:47.480Z,16.70
2018-02-18T06:48:19.216Z,16.60
2018-02-18T06:48:50.969Z,16.70
2018-02-18T06:49:22.705Z,16.70
2018-02-18T06:49:54.456Z,16.60